Time;durP1;ratioP1;P1;durP2;ratioP2;P2;SDS_P1;SDS_P2;PMS_P1;PMS_P2;Temp;Humidity;BMP_temperature;BMP_pressure;BME280_temperature;BME280_humidity;BME280_pressure;Samples;Min_cycle;Max_cycle;Signal;HPM_P1;HPM_P2
2024/01/24 00:19:01;;;;;;;3.38;0.82;;;;;;;12.62;100.00;101260.84;4897031;29;20599;-87
2024/01/24 00:39:31;;;;;;;1.38;0.50;;;;;;;12.71;100.00;101261.44;4937057;29;20050;-87
2024/01/24 00:57:24;;;;;;;2.97;0.73;;;;;;;12.43;100.00;101219.09;4936600;29;20563;-87
2024/01/24 00:59:52;;;;;;;2.40;0.63;;;;;;;12.45;100.00;101219.72;4935391;29;20065;-86
2024/01/24 01:02:33;;;;;;;;;;;;;;;;;;;;;
2024/01/24 01:22:23;;;;;;;1.73;0.80;;;;;;;11.32;100.00;101210.91;4936154;29;20098;-87
2024/01/24 01:28:34;;;;;;;3.85;1.00;;;;;;;11.30;100.00;101237.47;4936236;29;20047;-87
2024/01/24 01:41:56;;;;;;;3.67;1.13;;;;;;;11.19;100.00;101233.50;4936410;29;20052;-87
2024/01/24 01:48:49;;;;;;;2.17;1.00;;;;;;;11.31;100.00;101251.88;4938683;29;20111;-86
2024/01/24 01:54:52;;;;;;;1.58;1.00;;;;;;;11.17;100.00;101229.31;4939135;29;20046;-87
2024/01/24 02:00:39;;;;;;;3.00;0.77;;;;;;;11.19;100.00;101225.38;4939316;29;20070;-85
2024/01/24 02:03:06;;;;;;;1.90;1.00;;;;;;;11.14;100.00;101240.63;4922173;29;20134;-84
2024/01/24 02:05:32;;;;;;;3.00;1.08;;;;;;;11.08;100.00;101226.00;4922818;29;20368;-84
2024/01/24 02:07:57;;;;;;;2.50;0.90;;;;;;;11.06;100.00;101218.06;4937411;29;20028;-84
2024/01/24 02:10:23;;;;;;;1.30;0.70;;;;;;;11.04;100.00;101247.31;4921753;29;20035;-84
2024/01/24 02:12:49;;;;;;;1.97;1.00;;;;;;;11.05;100.00;101215.53;4937402;29;20154;-84
2024/01/24 02:15:15;;;;;;;1.13;0.73;;;;;;;10.99;100.00;101221.81;4922368;29;20130;-84
2024/01/24 02:17:42;;;;;;;1.70;1.15;;;;;;;10.98;100.00;101239.16;4938312;29;20121;-84
2024/01/24 02:20:12;;;;;;;2.30;0.85;;;;;;;10.95;100.00;101228.72;4921598;29;20066;-84
2024/01/24 02:22:37;;;;;;;1.42;0.80;;;;;;;10.95;100.00;101204.28;4938549;29;20124;-84
2024/01/24 02:25:04;;;;;;;3.10;0.87;;;;;;;10.92;100.00;101213.66;4921584;29;20063;-83
2024/01/24 02:27:29;;;;;;;1.90;0.80;;;;;;;10.86;100.00;101212.63;4937384;29;20070;-84
2024/01/24 02:29:58;;;;;;;3.43;0.90;;;;;;;10.93;100.00;101217.22;4938039;29;20149;-84
2024/01/24 02:32:26;;;;;;;1.63;0.70;;;;;;;10.92;100.00;101220.97;4921410;29;20291;-84
2024/01/24 02:34:52;;;;;;;1.48;0.77;;;;;;;10.90;100.00;101229.34;4937351;29;20094;-84
2024/01/24 02:37:19;;;;;;;1.30;0.90;;;;;;;10.94;100.00;101233.31;4921601;29;20040;-84
2024/01/24 02:39:46;;;;;;;1.05;0.70;;;;;;;10.86;100.00;101252.50;4937950;29;20110;-83
2024/01/24 02:42:11;;;;;;;0.70;0.60;;;;;;;10.92;100.00;101278.81;4921336;29;20118;-83
2024/01/24 02:44:37;;;;;;;1.53;0.60;;;;;;;10.90;100.00;101259.19;4937090;29;20453;-84
2024/01/24 02:47:02;;;;;;;0.90;0.70;;;;;;;10.90;100.00;101259.19;4921077;29;20111;-84
2024/01/24 02:49:27;;;;;;;1.55;0.80;;;;;;;10.87;100.00;101236.00;4937668;29;20295;-84
2024/01/24 02:51:53;;;;;;;1.00;0.60;;;;;;;10.91;100.00;101235.59;4921037;29;20036;-84
2024/01/24 02:54:18;;;;;;;1.20;0.60;;;;;;;10.90;100.00;101233.94;4919588;29;20504;-80
2024/01/24 02:56:44;;;;;;;1.83;0.70;;;;;;;10.88;100.00;101236.88;4937005;29;20123;-80
2024/01/24 02:59:10;;;;;;;1.27;0.70;;;;;;;10.91;100.00;101231.00;4936629;29;20035;-80
2024/01/24 03:01:35;;;;;;;1.58;0.63;;;;;;;10.91;100.00;101216.59;4937782;29;20496;-80
2024/01/24 03:04:01;;;;;;;1.60;0.70;;;;;;;10.88;100.00;101210.53;4920707;29;20118;-80
2024/01/24 03:06:26;;;;;;;1.00;0.70;;;;;;;10.91;100.00;101209.28;4920880;29;20380;-80
2024/01/24 03:08:57;;;;;;;4.40;1.20;;;;;;;10.85;100.00;101221.81;4921111;29;20063;-80
2024/01/24 03:11:23;;;;;;;2.47;1.15;;;;;;;10.95;100.00;101209.69;4920928;29;20059;-81
2024/01/24 03:13:49;;;;;;;2.42;1.70;;;;;;;10.90;100.00;101214.94;4936262;29;20035;-80
2024/01/24 03:16:15;;;;;;;3.07;1.50;;;;;;;10.83;100.00;101201.34;4936240;29;20036;-80
2024/01/24 03:18:41;;;;;;;1.45;1.00;;;;;;;10.80;100.00;101199.88;4920178;29;20036;-80
2024/01/24 03:21:09;;;;;;;2.60;1.23;;;;;;;10.82;100.00;101232.25;4921069;29;20042;-80
2024/01/24 03:23:37;;;;;;;1.85;1.00;;;;;;;10.78;100.00;101277.16;4920622;29;20058;-80
2024/01/24 03:26:03;;;;;;;2.22;1.10;;;;;;;10.82;100.00;101240.38;4904954;29;20126;-81
2024/01/24 03:28:29;;;;;;;2.20;1.10;;;;;;;10.79;100.00;101222.66;4937443;29;20091;-81
2024/01/24 03:30:54;;;;;;;2.97;0.90;;;;;;;10.76;100.00;101225.75;4936383;29;20051;-81
2024/01/24 03:33:21;;;;;;;1.33;0.73;;;;;;;10.78;100.00;101258.16;4936075;29;20480;-81
2024/01/24 03:35:46;;;;;;;3.72;0.90;;;;;;;10.76;100.00;101273.78;4935989;29;20031;-80
2024/01/24 03:38:12;;;;;;;1.00;0.60;;;;;;;10.82;100.00;101308.25;4937254;29;20070;-81
2024/01/24 03:40:37;;;;;;;2.80;0.70;;;;;;;10.95;100.00;101315.59;4920330;29;20035;-81
2024/01/24 03:43:05;;;;;;;3.20;0.90;;;;;;;10.95;100.00;101277.56;4936957;29;20039;-81
2024/01/24 03:45:30;;;;;;;4.07;0.80;;;;;;;11.04;100.00;101284.47;4920170;29;20493;-81
2024/01/24 03:47:56;;;;;;;2.85;0.80;;;;;;;11.04;100.00;101326.06;4919834;29;20131;-81
2024/01/24 03:50:21;;;;;;;4.18;1.13;;;;;;;11.06;100.00;101294.09;4920625;29;20040;-81
2024/01/24 03:52:46;;;;;;;3.70;0.93;;;;;;;11.12;100.00;101321.47;4936844;29;20036;-81
2024/01/24 03:55:12;;;;;;;3.37;0.97;;;;;;;11.13;100.00;101310.41;4936915;29;20032;-81
2024/01/24 03:57:37;;;;;;;8.57;1.13;;;;;;;11.11;100.00;101304.31;4935912;29;20043;-81
2024/01/24 04:00:05;;;;;;;4.20;1.33;;;;;;;11.15;100.00;101307.47;4935277;29;20036;-82
2024/01/24 04:02:31;;;;;;;6.20;1.20;;;;;;;11.18;100.00;101309.78;4937289;29;20070;-81
2024/01/24 04:04:56;;;;;;;9.73;1.10;;;;;;;11.17;100.00;101303.47;4935269;29;20126;-81
2024/01/24 04:07:22;;;;;;;7.30;1.33;;;;;;;11.15;100.00;101289.28;4936685;29;20039;-81
2024/01/24 04:09:47;;;;;;;13.23;1.67;;;;;;;11.16;100.00;101263.81;4935895;29;20043;-81
2024/01/24 04:12:12;;;;;;;9.05;1.80;;;;;;;11.19;100.00;101319.56;4936596;29;20271;-81
2024/01/24 04:14:38;;;;;;;12.23;1.70;;;;;;;11.19;100.00;101298.69;4919638;29;20412;-81
2024/01/24 04:17:03;;;;;;;8.87;1.43;;;;;;;11.13;100.00;101295.97;4935659;29;20039;-81
2024/01/24 04:19:29;;;;;;;9.80;1.63;;;;;;;11.14;100.00;101301.19;4936605;29;20031;-81
2024/01/24 04:21:55;;;;;;;12.13;1.60;;;;;;;11.17;100.00;101302.66;4919459;29;20119;-82
2024/01/24 04:24:20;;;;;;;11.33;1.80;;;;;;;11.13;100.00;101290.53;4935125;29;20147;-82
2024/01/24 04:26:46;;;;;;;12.40;2.20;;;;;;;11.08;100.00;101290.34;4919473;29;20036;-81
2024/01/24 04:29:11;;;;;;;10.60;1.83;;;;;;;11.13;100.00;101314.97;4936757;29;20032;-81
2024/01/24 04:31:36;;;;;;;11.93;1.77;;;;;;;11.10;100.00;101356.13;4936313;29;20488;-81
2024/01/24 04:34:02;;;;;;;12.17;2.17;;;;;;;11.09;100.00;101324.56;4919539;29;20127;-82
2024/01/24 04:36:27;;;;;;;17.47;2.80;;;;;;;11.15;100.00;101354.47;4919296;29;20373;-81
2024/01/24 04:38:52;;;;;;;12.17;2.20;;;;;;;11.15;100.00;101369.94;4935004;29;20055;-82
2024/01/24 04:41:18;;;;;;;13.70;2.17;;;;;;;11.20;100.00;101370.97;4934796;29;20031;-81
2024/01/24 04:43:43;;;;;;;18.23;2.50;;;;;;;11.09;100.00;101332.72;4919200;29;20122;-81
2024/01/24 04:46:16;;;;;;;13.97;2.33;;;;;;;11.07;100.00;101360.09;4919258;29;20547;-81
2024/01/24 04:48:43;;;;;;;14.35;2.08;;;;;;;10.97;100.00;101397.66;4935740;29;20500;-83
2024/01/24 04:51:08;;;;;;;16.75;2.83;;;;;;;10.94;100.00;101369.06;4935011;29;20098;-81
2024/01/24 04:53:35;;;;;;;18.67;2.83;;;;;;;10.88;100.00;101351.72;4936173;29;20055;-81
2024/01/24 04:56:00;;;;;;;13.32;1.98;;;;;;;10.81;100.00;101352.75;4919403;29;20042;-82
2024/01/24 04:58:26;;;;;;;16.80;3.70;;;;;;;10.88;100.00;101340.03;4935102;29;20040;-82
2024/01/24 05:00:52;;;;;;;12.20;2.70;;;;;;;10.91;100.00;101328.75;4935005;29;20028;-82
2024/01/24 05:03:17;;;;;;;15.80;2.93;;;;;;;10.95;100.00;101340.84;4919071;29;20042;-81
2024/01/24 05:05:43;;;;;;;16.77;2.97;;;;;;;10.90;100.00;101370.50;4934898;29;20038;-83
2024/01/24 05:08:08;;;;;;;22.03;3.30;;;;;;;10.91;100.00;101331.47;4935372;29;20469;-82
2024/01/24 05:10:34;;;;;;;16.58;2.88;;;;;;;11.02;100.00;101327.28;4918854;29;20469;-82
2024/01/24 05:12:59;;;;;;;19.60;3.07;;;;;;;10.97;100.00;101363.22;4919130;29;20118;-82
2024/01/24 05:15:24;;;;;;;22.70;3.03;;;;;;;10.94;100.00;101360.91;4936083;29;20046;-82
2024/01/24 05:17:50;;;;;;;21.57;3.10;;;;;;;10.93;100.00;101432.53;4937180;29;20043;-82
2024/01/24 05:20:17;;;;;;;26.03;4.60;;;;;;;10.95;100.00;101410.59;4938426;29;20080;-81
2024/01/24 05:22:43;;;;;;;14.13;2.92;;;;;;;10.92;100.00;101425.41;4923006;29;20563;-82
2024/01/24 05:25:08;;;;;;;22.60;3.08;;;;;;;10.97;100.00;101393.09;4939718;29;20040;-83
2024/01/24 05:27:34;;;;;;;19.13;3.33;;;;;;;11.01;100.00;101421.50;4938547;29;20039;-82
2024/01/24 05:29:59;;;;;;;22.52;3.28;;;;;;;11.10;100.00;101405.88;4922381;29;20126;-82
2024/01/24 05:32:25;;;;;;;22.77;3.35;;;;;;;11.08;100.00;101386.22;4906467;29;20027;-82
2024/01/24 05:34:50;;;;;;;26.27;3.10;;;;;;;11.18;100.00;101411.09;4922051;29;20032;-81
2024/01/24 05:37:15;;;;;;;21.67;3.80;;;;;;;11.17;100.00;101454.75;4939906;29;20039;-81
2024/01/24 05:39:43;;;;;;;22.47;3.20;;;;;;;11.24;100.00;101399.41;4937945;29;20028;-81
2024/01/24 05:42:09;;;;;;;24.38;3.28;;;;;;;11.25;100.00;101476.31;4922127;29;20095;-82
2024/01/24 05:44:34;;;;;;;23.10;3.10;;;;;;;11.32;100.00;101430.13;4922780;29;20040;-81
2024/01/24 05:47:00;;;;;;;24.48;3.47;;;;;;;11.24;100.00;101423.00;4922068;29;20031;-82
2024/01/24 05:49:25;;;;;;;22.80;4.25;;;;;;;11.17;100.00;101430.31;4939723;29;20062;-81
2024/01/24 05:51:51;;;;;;;27.23;4.43;;;;;;;11.17;100.00;101446.59;4937374;29;20067;-82
2024/01/24 05:54:16;;;;;;;23.40;3.17;;;;;;;11.14;100.00;101441.59;4921895;29;20059;-81
2024/01/24 05:56:42;;;;;;;21.73;3.28;;;;;;;11.16;100.00;101434.06;4939000;29;20047;-81
2024/01/24 05:59:08;;;;;;;22.40;4.40;;;;;;;11.17;100.00;101435.75;4922087;29;20477;-81
2024/01/24 06:01:33;;;;;;;28.05;4.25;;;;;;;11.19;100.00;101441.78;4921945;29;20043;-81
2024/01/24 06:03:59;;;;;;;34.80;5.00;;;;;;;11.17;100.00;101446.59;4937762;29;20047;-83
2024/01/24 06:06:24;;;;;;;20.20;3.43;;;;;;;11.21;100.00;101450.59;4906081;29;20040;-82
2024/01/24 06:08:49;;;;;;;27.30;3.90;;;;;;;11.21;100.00;101435.13;4921722;29;20036;-82
2024/01/24 06:11:17;;;;;;;26.85;3.63;;;;;;;11.19;100.00;101439.94;4921876;29;20036;-82
2024/01/24 06:13:42;;;;;;;25.43;4.43;;;;;;;11.22;100.00;101460.44;4937707;29;20031;-81
2024/01/24 06:16:10;;;;;;;25.77;4.05;;;;;;;11.26;100.00;101488.00;4937917;29;20106;-81
2024/01/24 06:18:35;;;;;;;22.20;3.20;;;;;;;11.24;100.00;101477.34;4937836;29;20057;-82
2024/01/24 06:21:01;;;;;;;27.98;4.78;;;;;;;11.14;100.00;101496.72;4921608;29;20507;-82
2024/01/24 06:23:26;;;;;;;21.05;5.00;;;;;;;11.13;100.00;101486.06;4921568;29;20117;-82
2024/01/24 06:25:52;;;;;;;27.50;4.33;;;;;;;11.09;100.00;101501.09;4921060;29;20040;-82
2024/01/24 06:28:17;;;;;;;21.73;4.23;;;;;;;11.07;100.00;101542.03;4938508;29;20035;-82
2024/01/24 06:30:42;;;;;;;26.08;4.72;;;;;;;11.03;100.00;101522.59;4905463;29;20031;-82
2024/01/24 06:33:09;;;;;;;29.20;4.43;;;;;;;10.99;100.00;101502.31;4906260;29;20450;-82
2024/01/24 06:35:34;;;;;;;29.23;4.38;;;;;;;11.00;100.00;101522.19;4937174;29;20058;-82
2024/01/24 06:38:01;;;;;;;31.33;5.03;;;;;;;10.94;100.00;101531.97;4936912;29;20058;-82
2024/01/24 06:40:26;;;;;;;29.88;5.32;;;;;;;10.96;100.00;101545.34;4938186;29;20090;-83
2024/01/24 06:42:52;;;;;;;29.43;5.03;;;;;;;10.96;100.00;101580.63;4938043;29;20404;-83
2024/01/24 06:45:17;;;;;;;32.73;4.60;;;;;;;10.90;100.00;101544.25;4936301;29;20444;-83
2024/01/24 06:47:43;;;;;;;38.08;5.32;;;;;;;10.88;100.00;101566.19;4937887;29;20063;-82
2024/01/24 06:50:12;;;;;;;29.40;3.90;;;;;;;10.93;100.00;101556.59;4936895;29;20062;-82
2024/01/24 06:52:38;;;;;;;31.05;4.90;;;;;;;10.87;100.00;101579.94;4921130;29;20035;-83
2024/01/24 06:55:04;;;;;;;29.70;5.27;;;;;;;10.83;100.00;101641.94;4920581;29;20039;-82
2024/01/24 06:57:29;;;;;;;35.83;4.75;;;;;;;10.75;100.00;101641.25;4936347;29;20209;-82
2024/01/24 06:59:55;;;;;;;31.13;5.37;;;;;;;10.75;100.00;101679.25;4936541;29;20036;-82
2024/01/24 07:02:20;;;;;;;31.50;5.27;;;;;;;10.66;100.00;101673.97;4904903;29;20480;-82
2024/01/24 07:04:45;;;;;;;30.00;4.80;;;;;;;10.67;100.00;101610.53;4920464;29;20122;-82
2024/01/24 07:07:11;;;;;;;34.83;5.70;;;;;;;10.60;100.00;101582.50;4920840;29;20036;-81
2024/01/24 07:09:36;;;;;;;30.97;5.10;;;;;;;10.49;100.00;101591.16;4920347;29;20042;-81
2024/01/24 07:12:03;;;;;;;33.30;5.87;;;;;;;10.40;100.00;101630.31;4936251;29;20032;-83
2024/01/24 07:14:28;;;;;;;30.10;5.18;;;;;;;10.38;100.00;101606.09;4920510;29;20507;-82
2024/01/24 07:16:54;;;;;;;35.83;5.27;;;;;;;10.35;100.00;101625.50;4935807;29;20059;-81
2024/01/24 07:19:19;;;;;;;27.13;4.43;;;;;;;10.32;100.00;101642.97;4935778;29;20036;-82
2024/01/24 07:21:45;;;;;;;37.25;5.13;;;;;;;10.27;100.00;101634.53;4935898;29;20035;-82
2024/01/24 07:24:11;;;;;;;27.23;4.28;;;;;;;10.27;100.00;101648.09;4919949;29;20042;-82
2024/01/24 07:26:36;;;;;;;38.87;6.10;;;;;;;10.21;100.00;101670.59;4935839;29;20035;-82
2024/01/24 07:29:01;;;;;;;40.23;6.00;;;;;;;10.16;100.00;101662.19;4920018;29;20502;-82
2024/01/24 07:31:27;;;;;;;36.00;5.70;;;;;;;10.13;100.00;101676.97;4937070;29;20032;-82
2024/01/24 07:33:52;;;;;;;29.77;4.80;;;;;;;10.10;100.00;101674.66;4919902;29;20090;-84
2024/01/24 07:36:21;;;;;;;29.77;5.87;;;;;;;10.12;100.00;101686.13;4936008;29;20126;-83
2024/01/24 07:38:49;;;;;;;27.40;4.50;;;;;;;10.14;100.00;101683.22;4920144;29;20039;-82
2024/01/24 07:41:14;;;;;;;27.33;4.35;;;;;;;10.13;100.00;101674.25;4936331;29;20102;-82
2024/01/24 07:43:40;;;;;;;31.13;4.47;;;;;;;10.04;100.00;101672.72;4919618;29;20481;-82
2024/01/24 07:46:06;;;;;;;30.65;3.85;;;;;;;10.00;100.00;101650.53;4936101;29;20054;-82
2024/01/24 07:48:31;;;;;;;30.97;6.27;;;;;;;10.08;100.00;101681.28;4919237;29;20070;-82
2024/01/24 07:50:57;;;;;;;32.90;5.77;;;;;;;10.07;100.00;101666.03;4937015;29;20069;-81
2024/01/24 07:53:23;;;;;;;26.65;4.97;;;;;;;9.98;100.00;101703.28;4920040;29;20036;-81
2024/01/24 07:55:49;;;;;;;29.90;5.50;;;;;;;9.97;100.00;101712.47;4920090;29;20028;-82
2024/01/24 07:58:14;;;;;;;37.90;6.10;;;;;;;9.91;100.00;101727.59;4919482;29;20799;-81
2024/01/24 08:00:40;;;;;;;32.87;4.67;;;;;;;9.85;100.00;101698.56;4919730;29;20134;-83
2024/01/24 08:03:07;;;;;;;32.58;4.93;;;;;;;9.83;100.00;101719.56;4935194;29;20542;-81
2024/01/24 08:05:33;;;;;;;29.85;4.75;;;;;;;9.83;100.00;101723.13;4919504;29;20051;-81
2024/01/24 08:07:59;;;;;;;34.80;5.35;;;;;;;9.86;100.00;101702.94;4919574;29;20040;-82
2024/01/24 08:10:24;;;;;;;37.47;5.63;;;;;;;9.83;100.00;101706.88;4935345;29;20032;-82
2024/01/24 08:12:50;;;;;;;29.90;5.07;;;;;;;9.90;100.00;101703.41;4935280;29;20063;-87
2024/01/24 08:15:16;;;;;;;39.55;5.80;;;;;;;9.97;100.00;101712.47;4919151;29;20043;-81
2024/01/24 08:17:42;;;;;;;27.27;4.47;;;;;;;9.90;100.00;101715.06;4935282;29;20055;-81
2024/01/24 08:20:08;;;;;;;29.07;4.47;;;;;;;9.89;100.00;101755.94;4935233;29;20502;-81
2024/01/24 08:22:35;;;;;;;31.52;4.28;;;;;;;9.96;100.00;101717.03;4919673;29;20043;-82
2024/01/24 08:25:01;;;;;;;34.85;5.55;;;;;;;9.97;100.00;101734.97;4936422;29;20031;-81
2024/01/24 08:27:27;;;;;;;28.48;5.60;;;;;;;10.02;100.00;101750.66;4920125;29;20036;-83
2024/01/24 08:29:52;;;;;;;30.88;4.85;;;;;;;10.03;100.00;101754.25;4919207;29;20396;-81
2024/01/24 08:32:18;;;;;;;34.87;5.70;;;;;;;10.06;100.00;101740.31;4919066;29;20051;-81
2024/01/24 08:34:43;;;;;;;33.42;4.97;;;;;;;10.08;100.00;101736.34;4919267;29;20047;-81
2024/01/24 08:37:09;;;;;;;39.70;5.15;;;;;;;10.03;100.00;101759.66;4919150;29;20134;-82
2024/01/24 08:39:35;;;;;;;44.23;5.90;;;;;;;10.01;100.00;101779.66;4936336;29;20039;-82
2024/01/24 08:42:02;;;;;;;37.20;5.35;;;;;;;10.06;100.00;101818.94;4935250;29;20027;-81
2024/01/24 08:44:27;;;;;;;30.58;4.63;;;;;;;10.12;100.00;101821.72;4918833;29;20139;-81
2024/01/24 08:46:52;;;;;;;29.53;4.77;;;;;;;10.11;100.00;101779.38;4934891;29;20118;-82
2024/01/24 08:49:18;;;;;;;28.17;5.07;;;;;;;10.14;100.00;101800.69;4934585;29;20060;-81
2024/01/24 08:51:43;;;;;;;28.95;4.57;;;;;;;10.15;100.00;101829.47;4937036;29;20186;-81
2024/01/24 08:54:12;;;;;;;33.47;6.47;;;;;;;10.18;100.00;101803.84;4923069;29;20091;-83
2024/01/24 08:56:38;;;;;;;33.05;5.00;;;;;;;10.18;100.00;101768.59;4938944;29;20028;-84
2024/01/24 08:59:03;;;;;;;28.38;4.82;;;;;;;10.21;100.00;101787.19;4922853;29;20042;-83
2024/01/24 09:01:29;;;;;;;27.33;5.60;;;;;;;10.22;100.00;101874.84;4939017;29;20036;-84
2024/01/24 09:03:55;;;;;;;34.08;5.03;;;;;;;10.20;100.00;101793.66;4938472;29;20031;-83
2024/01/24 09:06:22;;;;;;;32.60;5.60;;;;;;;10.20;100.00;101818.06;4938610;29;20123;-83
2024/01/24 09:08:57;;;;;;;32.50;4.80;;;;;;;10.21;100.00;101840.63;4940486;29;20039;-83
2024/01/24 09:11:23;;;;;;;38.45;5.97;;;;;;;10.17;100.00;101848.28;4923857;29;20481;-83
2024/01/24 09:13:49;;;;;;;35.60;6.13;;;;;;;10.17;100.00;101859.97;4922618;29;20059;-83
2024/01/24 09:16:15;;;;;;;30.98;4.93;;;;;;;10.18;100.00;101814.72;4938960;29;20380;-83
2024/01/24 09:18:42;;;;;;;34.67;4.77;;;;;;;10.19;100.00;101841.63;4938854;29;20063;-83
2024/01/24 09:21:07;;;;;;;25.60;3.78;;;;;;;10.24;100.00;101834.81;4922896;29;20115;-83
2024/01/24 09:23:33;;;;;;;41.83;6.23;;;;;;;10.28;100.00;101845.09;4923113;29;20123;-83
2024/01/24 09:25:59;;;;;;;34.85;5.47;;;;;;;10.27;100.00;101897.66;4922508;29;20473;-83
2024/01/24 09:28:24;;;;;;;30.67;5.35;;;;;;;10.32;100.00;101842.84;4938013;29;20114;-82
2024/01/24 09:30:49;;;;;;;33.37;6.13;;;;;;;10.31;100.00;101858.28;4939739;29;20071;-83
2024/01/24 09:33:16;;;;;;;36.05;5.57;;;;;;;10.33;100.00;101858.06;4907053;29;20070;-83
2024/01/24 09:36:27;;;;;;;26.83;4.97;;;;;;;10.39;100.00;101895.31;4922245;29;20138;-83
2024/01/24 09:38:50;;;;;;;33.40;5.18;;;;;;;10.41;100.00;101895.13;4938118;29;20040;-83
2024/01/24 09:41:19;;;;;;;32.97;4.83;;;;;;;10.47;100.00;101903.38;4921872;29;20046;-83
2024/01/24 09:43:47;;;;;;;31.83;5.20;;;;;;;10.46;100.00;101925.28;4938116;29;20040;-83
2024/01/24 09:46:17;;;;;;;37.47;5.47;;;;;;;10.49;100.00;101903.19;4938965;29;20043;-87
2024/01/24 09:48:45;;;;;;;36.63;5.90;;;;;;;10.46;100.00;101931.53;4938792;29;20078;-88
2024/01/24 09:51:11;;;;;;;34.80;5.60;;;;;;;10.43;100.00;101909.38;4938472;29;20042;-88
2024/01/24 09:53:46;;;;;;;37.30;5.88;;;;;;;10.49;100.00;101925.72;4938079;29;20477;-87
2024/01/24 09:56:15;;;;;;;38.33;6.15;;;;;;;10.42;100.00;101889.53;4939194;29;20460;-87
2024/01/24 09:58:48;;;;;;;34.70;5.30;;;;;;;10.44;100.00;101883.94;4937935;29;20031;-90
2024/01/24 10:01:18;;;;;;;42.63;6.43;;;;;;;10.36;100.00;101903.84;4921886;29;20035;-88
2024/01/24 10:03:46;;;;;;;38.47;5.20;;;;;;;10.38;100.00;101930.78;4937478;29;20460;-88
2024/01/24 10:06:14;;;;;;;35.17;5.88;;;;;;;10.38;100.00;101949.78;4938041;29;20453;-88
2024/01/24 10:08:40;;;;;;;37.38;5.68;;;;;;;10.38;100.00;101938.91;4937573;29;20487;-88
2024/01/24 10:11:22;;;;;;;33.00;5.80;;;;;;;10.47;100.00;101930.50;4937789;29;20079;-88
2024/01/24 10:13:52;;;;;;;41.67;6.25;;;;;;;10.43;100.00;101952.78;4937987;29;20299;-88
2024/01/24 10:16:27;;;;;;;27.95;5.85;;;;;;;10.48;100.00;101940.34;4937750;29;20476;-87
2024/01/24 10:18:56;;;;;;;25.90;4.75;;;;;;;10.64;100.00;101979.16;4937608;29;20039;-88
2024/01/24 10:21:25;;;;;;;33.05;5.10;;;;;;;10.66;100.00;101958.13;4937733;29;20095;-87
2024/01/24 10:23:55;;;;;;;31.80;5.38;;;;;;;10.72;100.00;101965.50;4921705;29;20471;-88
2024/01/24 10:26:46;;;;;;;29.15;5.18;;;;;;;10.79;100.00;101966.44;4937978;29;20036;-88
2024/01/24 10:29:12;;;;;;;28.20;5.43;;;;;;;10.92;100.00;102000.19;4924014;29;20052;-88
2024/01/24 10:31:45;;;;;;;29.20;4.40;;;;;;;10.94;100.00;101977.25;4937010;29;20032;-87
2024/01/24 10:34:25;;;;;;;;;;;;;;;;;;;;;
2024/01/24 10:36:50;;;;;;;27.17;4.18;;;;;;;10.94;100.00;101952.81;4938625;29;20164;-87
2024/01/24 10:39:36;;;;;;;34.95;5.47;;;;;;;10.88;100.00;101981.56;4921647;29;20528;-88
2024/01/24 10:42:06;;;;;;;25.90;4.72;;;;;;;10.95;99.46;102000.66;4937641;29;20039;-88
2024/01/24 10:44:37;;;;;;;32.92;5.13;;;;;;;10.99;97.20;101998.41;4937317;29;20038;-88
2024/01/24 10:47:03;;;;;;;31.05;5.68;;;;;;;11.03;96.46;101997.84;4937697;29;20043;-87
2024/01/24 10:52:31;;;;;;;35.45;5.45;;;;;;;11.07;93.78;102022.72;4922758;29;20075;-88
2024/01/24 10:55:06;;;;;;;26.85;4.43;;;;;;;11.21;93.09;102013.72;4921256;29;20047;-87
2024/01/24 10:57:41;;;;;;;30.08;4.78;;;;;;;11.15;91.60;101987.31;4938935;29;20058;-90
2024/01/24 11:00:10;;;;;;;24.98;4.97;;;;;;;11.11;89.27;101977.03;4921159;29;20095;-87
2024/01/24 11:02:41;;;;;;;28.77;4.80;;;;;;;11.12;90.13;102006.72;4938317;29;20473;-89
2024/01/24 11:05:11;;;;;;;27.83;4.78;;;;;;;11.16;89.50;102012.59;4920586;29;20035;-88
2024/01/24 11:07:46;;;;;;;33.97;4.97;;;;;;;11.13;89.29;102011.13;4921156;29;20054;-87
2024/01/24 11:10:43;;;;;;;;;;;;;;;;;;;;;
2024/01/24 11:13:11;;;;;;;30.55;4.93;;;;;;;11.35;88.43;102009.28;4938625;29;20042;-88
2024/01/24 11:15:55;;;;;;;32.35;4.13;;;;;;;11.45;87.67;102086.94;4905619;29;20063;-87
2024/01/24 11:18:30;;;;;;;28.60;4.13;;;;;;;11.38;85.68;102070.53;4923837;29;20051;-88
2024/01/24 11:20:57;;;;;;;26.70;4.97;;;;;;;11.37;86.27;102042.53;4921303;29;20036;-87
2024/01/24 11:23:47;;;;;;;28.10;4.85;;;;;;;11.44;86.60;102056.22;4920930;29;20130;-87
2024/01/24 11:26:32;;;;;;;28.15;3.88;;;;;;;11.47;86.42;102044.09;4921256;29;20042;-88
2024/01/24 11:29:18;;;;;;;29.08;4.20;;;;;;;11.57;86.07;102053.63;4936376;29;20044;-87
2024/01/24 11:31:56;;;;;;;31.88;4.65;;;;;;;11.73;83.26;102035.38;4920782;29;20118;-87
2024/01/24 11:34:31;;;;;;;27.85;5.13;;;;;;;12.04;81.58;102020.63;4920214;29;20043;-87
2024/01/24 11:36:57;;;;;;;31.25;4.57;;;;;;;12.03;79.92;102049.72;4920466;29;20114;-88
2024/01/24 11:39:30;;;;;;;28.07;5.50;;;;;;;12.12;78.90;102104.84;4920065;29;20062;-87
2024/01/24 11:42:50;;;;;;;23.90;4.05;;;;;;;12.15;78.07;102079.97;4936308;29;20287;-89
2024/01/24 11:45:23;;;;;;;35.97;6.00;;;;;;;12.20;76.43;102073.94;4920344;29;20027;-90
2024/01/24 11:55:33;;;;;;;32.33;5.15;;;;;;;11.94;77.09;102132.47;4935481;29;20062;-92
2024/01/24 11:58:02;;;;;;;26.38;4.07;;;;;;;11.82;76.34;102077.72;4934189;29;20055;-90
2024/01/24 12:00:33;;;;;;;29.85;4.97;;;;;;;11.87;77.17;102099.75;4936420;29;20042;-90
2024/01/24 12:03:02;;;;;;;25.77;4.95;;;;;;;11.85;76.63;102096.34;4920477;29;20046;-89
2024/01/24 12:05:30;;;;;;;29.85;5.22;;;;;;;12.04;76.45;102097.63;4935819;29;20440;-86
2024/01/24 12:08:03;;;;;;;24.38;4.60;;;;;;;12.55;74.38;102101.19;4951191;29;20439;-87
2024/01/24 12:14:13;;;;;;;;;;;;;;;;;;;;;
2024/01/24 12:16:38;;;;;;;25.67;3.67;;;;;;;12.36;73.07;102091.84;4936130;29;20040;-88
2024/01/24 12:19:06;;;;;;;33.00;5.03;;;;;;;12.39;71.34;102114.06;4936570;29;20115;-87
2024/01/24 12:21:35;;;;;;;27.52;4.53;;;;;;;12.36;71.03;102089.13;4936606;29;20042;-87
2024/01/24 12:34:47;;;;;;;28.55;4.85;;;;;;;12.72;70.76;102137.16;4936224;29;20036;-89
2024/01/24 12:37:15;;;;;;;23.48;4.18;;;;;;;12.58;68.78;102134.31;4950902;29;20038;-91
2024/01/24 12:39:43;;;;;;;23.83;4.43;;;;;;;12.26;69.82;102120.22;4934818;29;20126;-90
2024/01/24 12:42:31;;;;;;;28.60;4.22;;;;;;;12.36;70.74;102141.69;4951355;29;20108;-90
2024/01/24 12:55:46;;;;;;;24.08;3.72;;;;;;;12.96;67.84;102182.16;4936176;29;20102;-91
2024/01/24 13:01:46;;;;;;;25.30;4.20;;;;;;;12.95;64.46;102173.13;4940292;28;20074;-90
2024/01/24 13:07:52;;;;;;;25.67;3.95;;;;;;;12.75;65.79;102172.97;4934959;29;20051;-90
2024/01/24 13:10:57;;;;;;;24.27;4.30;;;;;;;12.36;67.50;102193.38;4919653;29;20043;-91
2024/01/24 13:23:39;;;;;;;27.02;4.20;;;;;;;11.38;73.50;102211.84;4936070;29;20038;-90
2024/01/24 13:29:34;;;;;;;25.30;3.97;;;;;;;11.19;75.26;102207.81;4936372;29;20046;-91
2024/01/24 13:32:20;;;;;;;19.83;3.88;;;;;;;11.17;75.78;102242.47;4903564;29;20095;-90
2024/01/24 13:34:50;;;;;;;29.50;4.13;;;;;;;11.19;76.44;102243.13;4918766;29;20028;-91
2024/01/24 13:37:19;;;;;;;23.80;3.85;;;;;;;11.23;76.27;102204.56;4919194;29;20035;-90
2024/01/24 13:39:44;;;;;;;23.40;3.80;;;;;;;11.41;76.27;102238.63;4921778;29;20086;-90
2024/01/24 13:42:17;;;;;;;31.65;5.28;;;;;;;11.32;75.56;102234.34;4921859;29;20036;-90
2024/01/24 13:44:47;;;;;;;22.73;3.95;;;;;;;11.32;76.25;102218.03;4922210;29;20024;-91
2024/01/24 13:47:16;;;;;;;24.42;3.70;;;;;;;11.37;76.14;102245.50;4923199;29;20520;-90
2024/01/24 13:49:45;;;;;;;23.07;4.00;;;;;;;11.46;74.95;102265.28;4923303;29;20457;-91
2024/01/24 13:52:13;;;;;;;24.88;4.93;;;;;;;11.44;75.78;102260.03;4922715;29;20040;-90
2024/01/24 13:54:43;;;;;;;26.60;3.45;;;;;;;11.29;74.39;102264.59;4937958;29;20063;-91